WetterOnline ( https://www.wetteronline.de )

Wetter aktuell Tetenbüll

Aktuelles Wetter: St. Peter-Ording (11m)

6-stündlich | Neueste Meldungen
Ortszeit Temperatur Wetter
Mi, 24.07. 2:00 17.2° C fast wolkenlos
Di, 23.07. 20:00 18.9° C bewölkt
Di, 23.07. 14:00 21.4° C wolkenlos
Di, 23.07. 8:00 18.7° C bewölkt
Di, 23.07. 2:00 16.6° C bedeckt
Mo, 22.07. 20:00 18.3° C wolkenlos
Mo, 22.07. 14:00 19.6° C wolkig
Mo, 22.07. 8:00 17.2° C bedeckt
Ortszeit Temperatur Wetter
Mi, 24.07. 2:30 17.0° C fast wolkenlos
Mi, 24.07. 2:20 17.0° C fast wolkenlos
Mi, 24.07. 2:10 17.0° C fast wolkenlos
Mi, 24.07. 2:00 17.2° C fast wolkenlos
Mi, 24.07. 1:50 17.2° C fast wolkenlos
Mi, 24.07. 1:40 17.1° C fast wolkenlos
Mi, 24.07. 1:30 17.0° C leicht bewölkt
Mi, 24.07. 1:00 17.4° C wolkig
Mi, 24.07. 0:30 17.5° C leicht bewölkt
Mi, 24.07. 0:00 17.5° C wolkig
Di, 23.07. 23:30 18.1° C bewölkt
Ortszeit Relative Feuchte Sichtweite
Mi, 24.07. 2:00 84% 30 km
Di, 23.07. 20:00 84% 30 km
Di, 23.07. 14:00 78% 23 km
Di, 23.07. 8:00 92% 18 km
Di, 23.07. 2:00 80% 65 km
Mo, 22.07. 20:00 70% 55 km
Mo, 22.07. 14:00 65% 50 km
Mo, 22.07. 8:00 92% 30 km
Ortszeit Relative Feuchte Sichtweite
Mi, 24.07. 2:30 81% 30 km
Mi, 24.07. 2:20 81% -
Mi, 24.07. 2:10 81% -
Mi, 24.07. 2:00 84% 30 km
Mi, 24.07. 1:50 84% -
Mi, 24.07. 1:40 82% -
Mi, 24.07. 1:30 83% 30 km
Mi, 24.07. 1:00 85% 45 km
Mi, 24.07. 0:30 85% 40 km
Mi, 24.07. 0:00 85% 40 km
Di, 23.07. 23:30 88% 35 km
Ortszeit Niederschlagsmenge Niederschlagsart
Mi, 24.07. 2:00 0.0 l/m2 in 6 Std. -
Di, 23.07. 20:00 0.1 l/m2 in 12 Std. -
Di, 23.07. 14:00 0.1 l/m2 in 6 Std. Niederschlag
Di, 23.07. 8:00 2 l/m2 in 12 Std. Regen
Di, 23.07. 2:00 0.1 l/m2 in 6 Std. Regen
Mo, 22.07. 20:00 0.1 l/m2 in 12 Std. -
Mo, 22.07. 14:00 0.1 l/m2 in 6 Std. Sprühregen
Mo, 22.07. 8:00 14 l/m2 in 12 Std. Regen
Ortszeit Niederschlagsmenge Niederschlagsart
Mi, 24.07. 2:30 0.0 l/m2 in 30 Min -
Mi, 24.07. 2:20 keine Meldung -
Mi, 24.07. 2:10 keine Meldung -
Mi, 24.07. 2:00 0.0 l/m2 in 1 Std. -
Mi, 24.07. 1:50 keine Meldung -
Mi, 24.07. 1:40 keine Meldung -
Mi, 24.07. 1:30 0.0 l/m2 in 30 Min -
Mi, 24.07. 1:00 0.0 l/m2 in 1 Std. -
Mi, 24.07. 0:30 0.0 l/m2 in 30 Min -
Mi, 24.07. 0:00 0.0 l/m2 in 1 Std. -
Di, 23.07. 23:30 0.0 l/m2 in 30 Min -
Ortszeit Stärke Spitze Richtung
km/h Bft. km/h Grad Sektor
Mi, 24.07. 2:00 25 4 36 320° NW
Di, 23.07. 20:00 20 4 39 300° NW
Di, 23.07. 14:00 30 5 41 250° W
Di, 23.07. 8:00 14 3 43 210° SW
Di, 23.07. 2:00 11 2 29 140° SO
Mo, 22.07. 20:00 9 2 39 260° W
Mo, 22.07. 14:00 26 4 48 280° W
Mo, 22.07. 8:00 31 5 44 300° NW
Ortszeit Stärke Spitze Richtung
km/h Bft. km/h Grad Sektor
Mi, 24.07. 2:30 25 4 36 320° NW
Mi, 24.07. 2:20 25 4 - 320° NW
Mi, 24.07. 2:10 25 4 - 320° NW
Mi, 24.07. 2:00 25 4 36 320° NW
Mi, 24.07. 1:50 25 4 - 320° NW
Mi, 24.07. 1:40 25 4 - 320° NW
Mi, 24.07. 1:30 22 4 35 330° NW
Mi, 24.07. 1:00 25 4 32 330° NW
Mi, 24.07. 0:30 24 4 31 330° NW
Mi, 24.07. 0:00 25 4 32 330° NW
Di, 23.07. 23:30 26 4 33 320° NW
Ortszeit Untergrenze Bedeckung Gattung
total tief tief mittel hoch
Mi, 24.07. 2:00 540 m 1/8 1/8 - - -
Di, 23.07. 20:00 510 m 7/8 7/8 - - -
Di, 23.07. 14:00 - 0/8 0/8 - - -
Di, 23.07. 8:00 420 m 7/8 7/8 - - -
Di, 23.07. 2:00 1140 m 8/8 8/8 - - -
Mo, 22.07. 20:00 - 0/8 0/8 - - -
Mo, 22.07. 14:00 840 m 5/8 5/8 - - -
Mo, 22.07. 8:00 330 m 8/8 8/8 - - -
Ortszeit Bedeckungsgrad in Achtel und Wolkenuntergrenze
Mi, 24.07. 2:30 1(600m)
Mi, 24.07. 2:20 1(600m)
Mi, 24.07. 2:10 1
Mi, 24.07. 2:00 1(540m)
Mi, 24.07. 1:50 1(540m)
Mi, 24.07. 1:40 1
Mi, 24.07. 1:30 2(510m)
Mi, 24.07. 1:00 5(510m)
Mi, 24.07. 0:30 2(510m) 4(1230m)
Mi, 24.07. 0:00 2(330m) 4(480m) 5(630m)
Di, 23.07. 23:30 2(360m) 5(750m) 7(1050m)
Ortszeit Luftdruck NN (hPa) Tendenz (hPa in 3 Std.)
Mi, 24.07. 2:00 1016 + 1,3
Di, 23.07. 20:00 1014 + 0,2
Di, 23.07. 14:00 1014 - 0,1
Di, 23.07. 8:00 1014 - 0,9
Di, 23.07. 2:00 1016 - 0,8
Mo, 22.07. 20:00 1017 + 0,1
Mo, 22.07. 14:00 1015 + 2,0
Mo, 22.07. 8:00 1011 + 1,7
Ortszeit Luftdruck NN (hPa) Tendenz (hPa in 3 Std.)
Mi, 24.07. 2:30 1016 + 1,1
Mi, 24.07. 2:20 1016 keine Meldung
Mi, 24.07. 2:10 1016 keine Meldung
Mi, 24.07. 2:00 1016 + 1,3
Mi, 24.07. 1:50 1016 keine Meldung
Mi, 24.07. 1:40 1016 keine Meldung
Mi, 24.07. 1:30 1016 + 1,0
Mi, 24.07. 1:00 1016 + 0,8
Mi, 24.07. 0:30 1016 + 0,6
Mi, 24.07. 0:00 1016 + 0,7
Di, 23.07. 23:30 1015 + 0,7
Ortszeit Schneehöhe (cm)
Mi, 24.07. 2:00 0
Di, 23.07. 20:00 0
Di, 23.07. 14:00 0
Di, 23.07. 8:00 0
Di, 23.07. 2:00 0
Mo, 22.07. 20:00 0
Mo, 22.07. 14:00 0
Mo, 22.07. 8:00 0
Ortszeit Schneehöhe (cm)
Mi, 24.07. 2:30 0
Mi, 24.07. 2:20 0
Mi, 24.07. 2:10 -
Mi, 24.07. 2:00 0
Mi, 24.07. 1:50 0
Mi, 24.07. 1:40 -
Mi, 24.07. 1:30 0
Mi, 24.07. 1:00 0
Mi, 24.07. 0:30 0
Mi, 24.07. 0:00 0
Di, 23.07. 23:30 0
Link zu dieser Seite / Seite empfehlen

Das Wetter in ...